Time;durP1;ratioP1;P1;durP2;ratioP2;P2;SDS_P1;SDS_P2;PMS_P1;PMS_P2;Temp;Humidity;BMP_temperature;BMP_pressure;BME280_temperature;BME280_humidity;BME280_pressure;Samples;Min_cycle;Max_cycle;Signal;HPM_P1;HPM_P2
2023/12/11 00:00:57;;;;;;;2.50;1.63;;;17.40;62.30;;;;;;4911166;29;20659;-86
2023/12/11 00:03:25;;;;;;;3.53;2.30;;;17.40;61.90;;;;;;4927397;29;20158;-85
2023/12/11 00:05:51;;;;;;;3.83;2.20;;;17.40;62.00;;;;;;4895267;29;20186;-86
2023/12/11 00:08:23;;;;;;;2.63;1.88;;;17.40;62.10;;;;;;4911794;29;20167;-86
2023/12/11 00:10:55;;;;;;;3.25;2.28;;;17.50;62.20;;;;;;4879629;29;20198;-84
2023/12/11 00:16:46;;;;;;;3.45;2.03;;;17.30;62.40;;;;;;4946252;29;20272;-86
2023/12/11 00:19:13;;;;;;;2.42;2.00;;;17.40;62.10;;;;;;4928340;29;20649;-85
2023/12/11 00:21:40;;;;;;;3.47;2.30;;;17.40;62.10;;;;;;4911990;29;20165;-85
2023/12/11 00:24:06;;;;;;;3.58;2.20;;;17.40;61.90;;;;;;4928254;29;20253;-86
2023/12/11 00:26:33;;;;;;;2.90;2.00;;;17.40;62.20;;;;;;4913415;29;20189;-86
2023/12/11 00:29:04;;;;;;;3.50;2.35;;;17.40;62.10;;;;;;4912476;29;20170;-86
2023/12/11 00:34:09;;;;;;;3.42;2.13;;;17.40;62.30;;;;;;5748751;23;20237;-86
2023/12/11 00:36:35;;;;;;;3.53;2.28;;;17.30;62.20;;;;;;4912062;29;20228;-85
2023/12/11 00:39:04;;;;;;;3.42;2.40;;;17.30;62.30;;;;;;4911844;29;20225;-86
2023/12/11 00:41:34;;;;;;;2.90;2.28;;;17.30;62.20;;;;;;4879396;29;20197;-86
2023/12/11 00:44:04;;;;;;;3.88;2.30;;;17.30;62.30;;;;;;4894941;29;20178;-86
2023/12/11 00:46:33;;;;;;;3.17;1.98;;;17.40;62.10;;;;;;4895540;29;20200;-86
2023/12/11 00:49:02;;;;;;;2.97;2.10;;;17.40;62.20;;;;;;4894840;29;20182;-86
2023/12/11 00:51:30;;;;;;;2.78;1.95;;;17.40;62.10;;;;;;4878329;29;20293;-86
2023/12/11 00:54:00;;;;;;;3.30;2.42;;;17.20;63.20;;;;;;4879068;29;20182;-86
2023/12/11 00:56:28;;;;;;;3.65;2.35;;;17.30;62.10;;;;;;4879014;29;20237;-86
2023/12/11 00:58:56;;;;;;;3.03;2.10;;;17.30;62.20;;;;;;4909646;29;20525;-86
2023/12/11 01:01:27;;;;;;;3.60;2.30;;;17.30;62.30;;;;;;4894581;29;20204;-87
2023/12/11 01:03:55;;;;;;;3.92;2.30;;;17.40;62.40;;;;;;4877983;29;20213;-86
2023/12/11 01:06:23;;;;;;;3.05;2.03;;;17.30;62.30;;;;;;4911525;29;20212;-86
2023/12/11 01:08:49;;;;;;;3.10;2.15;;;17.40;62.40;;;;;;4890512;29;20175;-86
2023/12/11 01:11:14;;;;;;;3.40;2.30;;;17.30;62.40;;;;;;4908260;29;20182;-85
2023/12/11 01:13:43;;;;;;;2.85;2.05;;;17.20;62.40;;;;;;4923829;29;20618;-85
2023/12/11 01:16:09;;;;;;;3.00;2.03;;;17.30;62.40;;;;;;4894094;29;20216;-85
2023/12/11 01:18:37;;;;;;;3.42;2.33;;;17.30;62.40;;;;;;4941818;29;20649;-85
2023/12/11 01:21:08;;;;;;;3.65;2.55;;;17.20;62.30;;;;;;4893677;29;20182;-85
2023/12/11 01:26:10;;;;;;;4.90;2.50;;;17.30;62.20;;;;;;4944506;29;20213;-86
2023/12/11 01:28:42;;;;;;;3.38;2.33;;;17.20;62.30;;;;;;4928570;29;20188;-86
2023/12/11 01:31:09;;;;;;;3.10;2.30;;;17.30;62.40;;;;;;5538102;23;21123;-85
2023/12/11 01:33:37;;;;;;;4.30;2.45;;;17.20;62.40;;;;;;4929466;29;20201;-85
2023/12/11 01:36:05;;;;;;;3.25;2.30;;;17.20;62.40;;;;;;4928138;29;20280;-85
2023/12/11 01:38:34;;;;;;;3.92;2.42;;;17.30;62.30;;;;;;4896396;29;20197;-85
2023/12/11 01:41:06;;;;;;;3.53;2.50;;;17.30;62.40;;;;;;4896856;29;20181;-85
2023/12/11 01:43:37;;;;;;;3.47;2.45;;;17.20;62.30;;;;;;4912107;29;20648;-85
2023/12/11 01:46:11;;;;;;;3.28;2.38;;;17.20;62.40;;;;;;4896420;29;20193;-85
2023/12/11 01:48:41;;;;;;;3.17;2.28;;;17.20;62.30;;;;;;4912601;29;20181;-86
2023/12/11 01:51:09;;;;;;;3.65;2.33;;;17.20;62.50;;;;;;4912712;29;20181;-86
2023/12/11 01:53:46;;;;;;;3.35;2.55;;;17.20;62.30;;;;;;4912015;29;20192;-86
2023/12/11 01:56:20;;;;;;;3.42;2.38;;;17.20;62.30;;;;;;4941400;29;20295;-86
2023/12/11 01:58:47;;;;;;;3.35;2.22;;;17.10;62.40;;;;;;4929073;28;20223;-86
2023/12/11 02:01:15;;;;;;;3.03;2.08;;;17.20;62.40;;;;;;4928065;29;20280;-86
2023/12/11 02:03:42;;;;;;;3.65;2.22;;;17.20;62.30;;;;;;4928026;29;20668;-86
2023/12/11 02:06:12;;;;;;;3.15;2.30;;;17.20;62.40;;;;;;4927862;29;20197;-85
2023/12/11 02:08:45;;;;;;;3.55;2.67;;;17.20;62.50;;;;;;4911366;29;20256;-86
2023/12/11 02:11:13;;;;;;;3.70;2.50;;;17.20;62.50;;;;;;4912284;29;20204;-86
2023/12/11 02:13:43;;;;;;;3.63;2.45;;;17.20;62.50;;;;;;4927663;29;20189;-86
2023/12/11 02:16:16;;;;;;;3.28;2.38;;;17.10;62.30;;;;;;4927365;29;20209;-86
2023/12/11 02:18:43;;;;;;;3.05;2.20;;;17.20;62.20;;;;;;4927153;29;20659;-86
2023/12/11 02:21:11;;;;;;;3.60;2.25;;;17.10;62.40;;;;;;4928248;29;20182;-86
2023/12/11 02:23:56;;;;;;;3.42;2.47;;;17.20;62.30;;;;;;4908772;29;20170;-86
2023/12/11 02:26:26;;;;;;;3.30;2.55;;;17.20;62.40;;;;;;4894755;29;20206;-86
2023/12/11 02:28:57;;;;;;;2.60;2.20;;;17.10;62.50;;;;;;4908240;29;20221;-86
2023/12/11 02:31:22;;;;;;;4.15;2.50;;;17.10;62.50;;;;;;4890269;29;20332;-86
2023/12/11 02:33:52;;;;;;;3.88;2.30;;;17.10;62.50;;;;;;4925222;29;20205;-86
2023/12/11 02:36:18;;;;;;;4.80;2.60;;;17.10;62.40;;;;;;4908860;29;20230;-86
2023/12/11 02:38:44;;;;;;;2.90;2.25;;;17.10;62.40;;;;;;4940042;29;20205;-85
2023/12/11 02:41:10;;;;;;;3.00;2.25;;;17.10;62.40;;;;;;4949802;29;20177;-86
2023/12/11 02:43:41;;;;;;;3.83;2.58;;;17.10;62.40;;;;;;4958991;29;20629;-85
2023/12/11 02:46:06;;;;;;;3.63;2.33;;;17.10;62.50;;;;;;4917230;29;20202;-86
2023/12/11 02:48:34;;;;;;;3.33;2.40;;;17.10;62.50;;;;;;4916779;29;20236;-86
2023/12/11 02:51:01;;;;;;;4.53;2.60;;;17.10;62.30;;;;;;4908074;29;20158;-86
2023/12/11 02:53:31;;;;;;;3.03;2.25;;;17.10;62.40;;;;;;4916270;29;20189;-86
2023/12/11 02:56:03;;;;;;;3.65;2.50;;;17.10;62.40;;;;;;4906725;29;20285;-85
2023/12/11 02:58:32;;;;;;;3.15;2.42;;;17.00;62.40;;;;;;4907109;29;20593;-86
2023/12/11 03:01:03;;;;;;;3.40;2.28;;;17.10;62.30;;;;;;4892366;29;20186;-85
2023/12/11 03:03:32;;;;;;;2.67;2.28;;;17.10;62.50;;;;;;4910348;29;20220;-85
2023/12/11 03:06:04;;;;;;;3.00;2.35;;;17.10;62.40;;;;;;4926059;29;20189;-85
2023/12/11 03:08:36;;;;;;;3.53;2.42;;;17.00;62.30;;;;;;4926331;29;20185;-86
2023/12/11 03:11:03;;;;;;;3.78;2.50;;;17.10;62.20;;;;;;4920587;29;20190;-85
2023/12/11 03:13:31;;;;;;;5.18;2.60;;;17.10;62.50;;;;;;4926429;29;20172;-85
2023/12/11 03:15:59;;;;;;;3.10;2.45;;;17.10;62.70;;;;;;4910409;29;20213;-85
2023/12/11 03:18:30;;;;;;;3.33;2.60;;;17.00;62.60;;;;;;4910663;29;20188;-86
2023/12/11 03:20:58;;;;;;;3.63;2.70;;;17.10;62.30;;;;;;4910193;29;20547;-86
2023/12/11 03:23:28;;;;;;;3.40;2.50;;;17.00;62.40;;;;;;4926433;29;20192;-85
2023/12/11 03:25:56;;;;;;;3.60;2.60;;;17.00;62.50;;;;;;4911035;29;20252;-85
2023/12/11 03:28:25;;;;;;;4.45;2.55;;;17.10;62.60;;;;;;4895234;29;20185;-86
2023/12/11 03:30:54;;;;;;;5.60;3.00;;;17.00;62.50;;;;;;4908624;29;20198;-85
2023/12/11 03:33:22;;;;;;;3.40;2.50;;;17.10;62.50;;;;;;4910365;29;20708;-86
2023/12/11 03:35:53;;;;;;;3.00;2.10;;;17.00;62.60;;;;;;4910664;29;20210;-87
2023/12/11 03:38:24;;;;;;;4.40;2.50;;;17.00;62.50;;;;;;4911174;29;20257;-85
2023/12/11 03:40:52;;;;;;;3.70;2.53;;;17.00;62.40;;;;;;4911841;29;20207;-86
2023/12/11 03:43:19;;;;;;;3.53;2.50;;;17.00;62.60;;;;;;4897712;29;20216;-87
2023/12/11 03:45:47;;;;;;;4.93;2.70;;;17.00;62.30;;;;;;4912973;29;20193;-85
2023/12/11 03:48:14;;;;;;;3.55;2.42;;;17.10;62.50;;;;;;4926541;29;20185;-85
2023/12/11 03:50:45;;;;;;;4.05;2.50;;;17.10;62.40;;;;;;4914063;29;20185;-85
2023/12/11 03:53:12;;;;;;;3.10;2.40;;;17.00;62.50;;;;;;4923632;29;20181;-85
2023/12/11 03:55:39;;;;;;;4.75;2.83;;;17.00;62.30;;;;;;4898858;29;20189;-85
2023/12/11 03:58:11;;;;;;;3.35;2.45;;;17.00;62.30;;;;;;4898859;29;20185;-86
2023/12/11 04:00:38;;;;;;;3.78;2.58;;;17.00;62.30;;;;;;4915237;29;20177;-86
2023/12/11 04:03:09;;;;;;;3.38;2.50;;;17.00;62.40;;;;;;4930977;29;20606;-86
2023/12/11 04:05:40;;;;;;;3.50;2.63;;;17.00;62.50;;;;;;4898385;29;20272;-85
2023/12/11 04:08:06;;;;;;;2.90;2.33;;;17.00;62.50;;;;;;4913718;29;20189;-85
2023/12/11 04:10:33;;;;;;;3.42;2.45;;;17.00;62.30;;;;;;4931174;29;20212;-85
2023/12/11 04:13:05;;;;;;;3.45;2.55;;;17.00;62.30;;;;;;4930279;29;20208;-85
2023/12/11 04:15:44;;;;;;;3.72;2.65;;;17.00;62.30;;;;;;4912501;29;20216;-85
2023/12/11 04:18:13;;;;;;;3.25;2.45;;;17.00;62.30;;;;;;4922620;29;20197;-86
2023/12/11 04:20:45;;;;;;;4.30;3.08;;;17.00;62.30;;;;;;4914464;29;20221;-85
2023/12/11 04:23:14;;;;;;;3.22;2.42;;;17.00;62.30;;;;;;4918103;29;20190;-85
2023/12/11 04:25:43;;;;;;;3.53;2.60;;;17.00;62.30;;;;;;4926427;29;20249;-85
2023/12/11 04:28:10;;;;;;;3.42;2.55;;;17.00;62.30;;;;;;4910866;29;20196;-85
2023/12/11 04:30:36;;;;;;;3.25;2.47;;;17.00;62.50;;;;;;4927699;29;20163;-85
2023/12/11 04:33:02;;;;;;;3.70;2.72;;;16.90;62.20;;;;;;4927638;29;20645;-86
2023/12/11 04:35:32;;;;;;;4.75;2.70;;;17.00;63.20;;;;;;4927530;29;20181;-85
2023/12/11 04:38:03;;;;;;;3.30;2.50;;;17.00;62.30;;;;;;4910430;29;20202;-85
2023/12/11 04:40:34;;;;;;;3.90;2.65;;;17.00;62.20;;;;;;4879431;29;20188;-86
2023/12/11 04:43:00;;;;;;;3.75;2.50;;;17.00;62.20;;;;;;4879817;29;20182;-86
2023/12/11 04:45:27;;;;;;;3.97;2.78;;;17.00;62.20;;;;;;4911734;29;20173;-86
2023/12/11 04:47:53;;;;;;;3.50;2.50;;;17.00;62.20;;;;;;4910753;29;20167;-86
2023/12/11 04:50:23;;;;;;;3.67;2.65;;;17.00;62.20;;;;;;4926730;29;20589;-86
2023/12/11 04:52:52;;;;;;;3.67;2.67;;;17.00;62.20;;;;;;4927675;28;20192;-86
2023/12/11 04:55:21;;;;;;;3.95;2.75;;;17.00;62.30;;;;;;4916889;28;20181;-88
2023/12/11 04:57:51;;;;;;;3.17;2.47;;;17.00;62.30;;;;;;4899958;29;20214;-86
2023/12/11 05:00:21;;;;;;;4.10;2.55;;;17.00;62.20;;;;;;4894731;29;20235;-86
2023/12/11 05:02:53;;;;;;;3.30;2.47;;;16.90;62.20;;;;;;4893841;29;20182;-87
2023/12/11 05:05:24;;;;;;;4.43;2.88;;;16.90;62.20;;;;;;4878005;29;20186;-86
2023/12/11 05:07:53;;;;;;;4.45;2.58;;;16.90;62.20;;;;;;4878249;29;20185;-86
2023/12/11 05:10:21;;;;;;;3.10;2.63;;;17.00;62.20;;;;;;4878456;29;20186;-86
2023/12/11 05:12:49;;;;;;;4.00;2.80;;;17.00;62.30;;;;;;4925336;29;20217;-86
2023/12/11 05:15:18;;;;;;;3.85;2.72;;;17.00;62.30;;;;;;4912403;29;20189;-85
2023/12/11 05:17:46;;;;;;;3.80;2.60;;;17.00;62.20;;;;;;4912016;29;20264;-85
2023/12/11 05:20:18;;;;;;;3.97;2.60;;;16.90;62.20;;;;;;4896407;29;20214;-85
2023/12/11 05:22:46;;;;;;;4.30;2.80;;;17.00;62.20;;;;;;4912410;29;20285;-85
2023/12/11 05:25:14;;;;;;;3.47;2.40;;;17.00;62.30;;;;;;4911887;29;20185;-85
2023/12/11 05:27:44;;;;;;;4.10;2.58;;;17.00;62.30;;;;;;4927950;28;20196;-86
2023/12/11 05:30:11;;;;;;;3.53;2.55;;;16.90;62.30;;;;;;4931340;28;20199;-86
2023/12/11 05:32:44;;;;;;;3.30;2.45;;;16.90;62.20;;;;;;4915118;28;20263;-86
2023/12/11 05:35:11;;;;;;;3.28;2.55;;;16.90;62.20;;;;;;4931517;28;20184;-86
2023/12/11 05:37:41;;;;;;;3.42;2.65;;;16.90;62.10;;;;;;4916123;28;20220;-86
2023/12/11 05:40:11;;;;;;;4.75;2.80;;;17.00;62.20;;;;;;4930729;28;20219;-85
2023/12/11 05:42:42;;;;;;;4.70;2.72;;;17.00;62.10;;;;;;4930853;28;20212;-86
2023/12/11 05:45:12;;;;;;;4.20;2.55;;;16.90;62.10;;;;;;4914980;28;20184;-86
2023/12/11 05:47:42;;;;;;;4.40;2.80;;;16.90;62.00;;;;;;4914610;28;20185;-86
2023/12/11 05:50:13;;;;;;;3.85;2.60;;;16.90;62.10;;;;;;4914775;28;20180;-86
2023/12/11 05:52:40;;;;;;;3.53;2.70;;;17.00;62.20;;;;;;4930122;28;20180;-86
2023/12/11 05:55:07;;;;;;;3.67;2.63;;;16.90;62.10;;;;;;4914024;28;20212;-85
2023/12/11 05:57:34;;;;;;;3.40;2.47;;;16.90;62.10;;;;;;4930921;28;20606;-86
2023/12/11 06:00:07;;;;;;;3.35;2.28;;;16.90;62.10;;;;;;4931425;28;20212;-86
2023/12/11 06:02:36;;;;;;;4.30;2.80;;;17.00;62.10;;;;;;4915354;28;20184;-87
2023/12/11 06:05:09;;;;;;;3.85;2.80;;;16.90;62.10;;;;;;4931591;28;20212;-86
2023/12/11 06:07:43;;;;;;;3.78;2.60;;;17.00;62.10;;;;;;4916170;29;20273;-86
2023/12/11 06:10:09;;;;;;;3.55;2.58;;;16.90;62.10;;;;;;4894118;29;20557;-87
2023/12/11 06:12:40;;;;;;;4.18;2.65;;;16.90;62.00;;;;;;4941603;29;20169;-86
2023/12/11 06:15:07;;;;;;;4.30;2.70;;;16.90;62.10;;;;;;4878067;29;20186;-86
2023/12/11 06:17:37;;;;;;;4.25;3.13;;;16.90;62.00;;;;;;4926195;29;20198;-86
2023/12/11 06:20:09;;;;;;;3.42;2.45;;;17.00;61.80;;;;;;4894147;29;20205;-87
2023/12/11 06:22:42;;;;;;;4.10;2.95;;;17.00;62.00;;;;;;4894069;29;20190;-87
2023/12/11 06:25:14;;;;;;;4.75;3.03;;;16.90;61.90;;;;;;4924962;29;20668;-87
2023/12/11 06:27:45;;;;;;;3.70;2.80;;;16.90;62.00;;;;;;4908164;29;20193;-86
2023/12/11 06:30:12;;;;;;;4.18;3.05;;;16.90;62.00;;;;;;4877807;29;20189;-86
2023/12/11 06:32:38;;;;;;;3.78;2.70;;;16.90;62.00;;;;;;4925261;29;20284;-87
2023/12/11 06:35:04;;;;;;;3.20;2.42;;;16.90;62.00;;;;;;4926002;29;20257;-87
2023/12/11 06:37:30;;;;;;;3.67;2.67;;;16.90;62.00;;;;;;4925041;29;20202;-87
2023/12/11 06:39:57;;;;;;;5.22;2.88;;;17.00;62.00;;;;;;4925778;29;20190;-87
2023/12/11 06:42:23;;;;;;;3.85;2.67;;;16.90;62.00;;;;;;4941134;29;20183;-86
2023/12/11 06:44:53;;;;;;;4.15;2.80;;;17.00;62.00;;;;;;4941318;29;20165;-87
2023/12/11 06:47:23;;;;;;;3.83;2.80;;;16.90;61.80;;;;;;4924745;29;20268;-87
2023/12/11 06:49:54;;;;;;;3.35;2.53;;;16.90;61.90;;;;;;4893300;29;20193;-86
2023/12/11 06:52:20;;;;;;;3.22;2.45;;;16.90;61.70;;;;;;4909691;29;20182;-86
2023/12/11 06:54:52;;;;;;;3.47;2.65;;;16.90;61.60;;;;;;4941237;29;20173;-87
2023/12/11 06:57:18;;;;;;;4.32;2.60;;;17.00;61.70;;;;;;4880560;29;20224;-86
2023/12/11 06:59:44;;;;;;;3.72;2.63;;;17.00;61.70;;;;;;4940177;29;20186;-86
2023/12/11 07:02:14;;;;;;;3.35;2.55;;;17.00;61.50;;;;;;4931987;29;20174;-86
2023/12/11 07:04:44;;;;;;;3.90;2.83;;;17.00;61.60;;;;;;4928493;28;20188;-85
2023/12/11 07:18:06;;;;;;;3.60;2.55;;;17.00;61.70;;;;;;4922239;29;20328;-86
2023/12/11 07:20:33;;;;;;;5.47;2.88;;;16.90;61.10;;;;;;4910829;29;20202;-86
2023/12/11 07:23:05;;;;;;;4.10;2.55;;;16.90;61.10;;;;;;4926425;29;20217;-84
2023/12/11 07:25:45;;;;;;;4.07;3.05;;;17.10;60.40;;;;;;4878427;29;20720;-84
2023/12/11 07:28:16;;;;;;;3.38;2.60;;;17.20;60.30;;;;;;4892919;29;20186;-84
2023/12/11 07:30:46;;;;;;;3.85;2.63;;;17.10;60.50;;;;;;4892126;29;20317;-84
2023/12/11 07:33:15;;;;;;;4.45;2.63;;;17.20;60.60;;;;;;4907763;29;20885;-85
2023/12/11 07:35:47;;;;;;;5.25;2.55;;;17.20;59.90;;;;;;4908808;29;20192;-86
2023/12/11 07:38:25;;;;;;;4.18;2.60;;;17.20;59.80;;;;;;4910878;29;20612;-84
2023/12/11 07:40:56;;;;;;;4.78;3.25;;;17.20;60.20;;;;;;4910194;29;20186;-84
2023/12/11 07:43:26;;;;;;;5.03;2.45;;;17.20;60.50;;;;;;4894575;29;20286;-85
2023/12/11 07:45:54;;;;;;;4.97;2.85;;;17.20;60.20;;;;;;4910351;29;20645;-85
2023/12/11 07:48:22;;;;;;;4.63;2.80;;;17.20;60.00;;;;;;4896172;29;20167;-86
2023/12/11 07:50:50;;;;;;;4.82;3.10;;;17.20;60.00;;;;;;4917437;29;20179;-86
2023/12/11 07:53:24;;;;;;;5.55;2.65;;;17.20;60.40;;;;;;4893413;29;20626;-85
2023/12/11 07:55:51;;;;;;;5.32;2.50;;;17.30;59.20;;;;;;4884533;29;20206;-85
2023/12/11 07:58:23;;;;;;;3.47;2.42;;;17.40;59.20;;;;;;4919610;29;20167;-85
2023/12/11 08:01:05;;;;;;;3.58;2.63;;;17.50;58.90;;;;;;4903061;29;20183;-86
2023/12/11 08:03:32;;;;;;;4.18;2.58;;;17.50;58.80;;;;;;4908428;29;20262;-86
2023/12/11 08:06:12;;;;;;;3.97;2.70;;;17.50;58.90;;;;;;4891684;29;20175;-87
2023/12/11 08:08:52;;;;;;;4.38;2.50;;;17.50;59.10;;;;;;4903121;29;20211;-86
2023/12/11 08:11:20;;;;;;;4.07;2.60;;;17.50;59.10;;;;;;4837878;29;20183;-86
2023/12/11 08:14:05;;;;;;;4.65;2.55;;;17.60;58.90;;;;;;4888019;29;20178;-87
2023/12/11 08:16:41;;;;;;;4.43;2.80;;;17.50;59.20;;;;;;4835815;29;20249;-86
2023/12/11 08:19:33;;;;;;;4.88;2.80;;;17.50;59.50;;;;;;4841954;29;20205;-86
2023/12/11 08:21:59;;;;;;;3.75;2.60;;;17.50;58.70;;;;;;4818134;29;20193;-87
2023/12/11 08:24:41;;;;;;;4.07;2.47;;;17.50;59.00;;;;;;4816533;29;20198;-86
2023/12/11 08:27:25;;;;;;;10.27;2.80;;;17.50;59.40;;;;;;4832411;29;20186;-87
2023/12/11 08:29:56;;;;;;;6.38;3.13;;;17.60;58.90;;;;;;4828022;29;20190;-87
2023/12/11 08:32:35;;;;;;;6.60;2.75;;;17.50;59.10;;;;;;4812668;29;20187;-87
2023/12/11 08:35:40;;;;;;;6.95;2.60;;;17.40;59.10;;;;;;4826224;29;20190;-88
2023/12/11 08:38:25;;;;;;;8.50;2.60;;;17.50;59.80;;;;;;4796499;30;20281;-87
2023/12/11 08:41:04;;;;;;;6.93;2.63;;;17.50;59.60;;;;;;4816453;29;20191;-86
2023/12/11 08:44:15;;;;;;;;;;;;;;;;;;;;;
2023/12/11 08:46:55;;;;;;;5.07;2.70;;;17.50;59.20;;;;;;4797002;29;20196;-86
2023/12/11 08:49:40;;;;;;;6.55;2.70;;;17.50;59.10;;;;;;4809731;29;20188;-88
2023/12/11 08:52:18;;;;;;;5.38;2.80;;;17.60;59.00;;;;;;4811113;29;20240;-87
2023/12/11 08:54:50;;;;;;;5.78;2.42;;;17.60;59.20;;;;;;4775561;29;20270;-87
2023/12/11 08:57:16;;;;;;;9.27;2.72;;;17.60;58.70;;;;;;4813360;29;20245;-87
2023/12/11 09:00:51;;;;;;;6.50;2.78;;;17.70;58.70;;;;;;4814667;29;20186;-87
2023/12/11 09:02:51;;;;;;;3.70;2.70;;;17.60;59.40;;;;;;4820625;29;20202;-86
2023/12/11 09:05:21;;;;;;;6.72;2.80;;;17.50;59.90;;;;;;4849775;29;20189;-88
2023/12/11 09:07:47;;;;;;;6.07;2.72;;;17.60;59.00;;;;;;4846794;29;20213;-87
2023/12/11 09:10:14;;;;;;;4.28;2.55;;;17.70;58.80;;;;;;4853617;29;20204;-84
2023/12/11 09:12:40;;;;;;;6.55;2.47;;;17.70;59.20;;;;;;4857495;29;20342;-88
2023/12/11 09:15:12;;;;;;;5.45;2.40;;;17.70;58.80;;;;;;4855172;29;20334;-86
2023/12/11 09:17:41;;;;;;;6.22;2.55;;;17.70;58.90;;;;;;4855873;29;20231;-87
2023/12/11 09:20:09;;;;;;;6.82;3.00;;;17.60;58.70;;;;;;4841321;29;20203;-86
2023/12/11 09:22:42;;;;;;;8.80;3.03;;;17.70;59.10;;;;;;4845619;29;20191;-86
2023/12/11 09:25:11;;;;;;;8.23;2.67;;;17.70;58.80;;;;;;4800492;29;20205;-87
2023/12/11 09:27:54;;;;;;;5.25;2.38;;;17.70;58.70;;;;;;4816830;29;20235;-86
2023/12/11 09:30:28;;;;;;;9.38;2.45;;;17.60;58.70;;;;;;4815239;29;20194;-85
2023/12/11 09:32:54;;;;;;;3.75;2.45;;;17.70;58.60;;;;;;4815333;29;20217;-86
2023/12/11 09:35:32;;;;;;;7.97;2.38;;;17.80;58.70;;;;;;4816585;29;20190;-87
2023/12/11 09:37:59;;;;;;;5.90;2.47;;;17.70;58.60;;;;;;4811593;29;20229;-86
2023/12/11 09:40:29;;;;;;;4.18;2.72;;;17.80;58.80;;;;;;4829381;29;20190;-85
2023/12/11 09:43:09;;;;;;;8.02;2.85;;;17.70;59.70;;;;;;4845027;29;20190;-86
2023/12/11 09:45:46;;;;;;;5.90;2.40;;;17.70;59.40;;;;;;4831432;29;20277;-85
2023/12/11 09:48:16;;;;;;;8.40;2.47;;;17.70;58.80;;;;;;4824575;29;20239;-86
2023/12/11 09:50:50;;;;;;;6.10;2.67;;;17.70;59.30;;;;;;4786031;29;20242;-85
2023/12/11 09:53:21;;;;;;;4.93;2.42;;;17.70;59.00;;;;;;4824004;29;20310;-86
2023/12/11 09:55:52;;;;;;;8.07;2.55;;;17.70;60.00;;;;;;4797831;29;20277;-86
2023/12/11 09:58:24;;;;;;;6.50;2.70;;;17.70;59.30;;;;;;4829137;29;20193;-86
2023/12/11 10:01:00;;;;;;;6.50;2.70;;;17.60;59.30;;;;;;4831298;29;20195;-85
2023/12/11 10:03:33;;;;;;;6.53;2.30;;;17.70;59.20;;;;;;4824241;29;20180;-84
2023/12/11 10:06:14;;;;;;;4.03;2.53;;;17.80;59.10;;;;;;4853310;29;20184;-86
2023/12/11 10:08:45;;;;;;;6.03;2.78;;;17.80;59.40;;;;;;4867173;29;20191;-86
2023/12/11 10:11:19;;;;;;;6.32;2.42;;;17.70;59.60;;;;;;4892735;29;20286;-87
2023/12/11 10:13:55;;;;;;;4.07;2.30;;;17.70;59.30;;;;;;4887891;29;20196;-87
2023/12/11 10:16:33;;;;;;;4.63;2.35;;;17.70;59.60;;;;;;4839492;29;20219;-87
2023/12/11 10:19:07;;;;;;;4.72;2.60;;;17.70;59.90;;;;;;4863401;29;20217;-86
2023/12/11 10:22:24;;;;;;;4.20;2.30;;;17.80;59.60;;;;;;4864426;29;20184;-85
2023/12/11 10:31:39;;;;;;;4.80;2.00;;;17.80;59.60;;;;;;4883203;29;20180;-87
2023/12/11 10:34:10;;;;;;;6.85;3.00;;;17.90;59.70;;;;;;4873116;29;20788;-86
2023/12/11 10:36:50;;;;;;;4.35;2.30;;;17.80;59.60;;;;;;4874410;29;20199;-88
2023/12/11 10:39:21;;;;;;;2.60;1.80;;;17.80;59.40;;;;;;4858381;29;20184;-87
2023/12/11 10:41:52;;;;;;;4.43;2.70;;;17.80;59.30;;;;;;4859051;29;20164;-88
2023/12/11 10:44:23;;;;;;;4.68;2.03;;;17.80;59.10;;;;;;4855728;29;20183;-89
2023/12/11 10:46:55;;;;;;;3.60;2.30;;;17.80;59.80;;;;;;4888096;29;20216;-89
2023/12/11 10:49:25;;;;;;;3.22;2.10;;;17.70;59.40;;;;;;4893879;29;20194;-87
2023/12/11 10:52:23;;;;;;;7.40;2.35;;;17.80;59.40;;;;;;4874453;29;20190;-86
2023/12/11 10:55:03;;;;;;;4.95;2.35;;;17.70;60.10;;;;;;4859839;29;20191;-85
2023/12/11 10:57:33;;;;;;;4.88;2.20;;;17.70;60.30;;;;;;4888969;29;20309;-85
2023/12/11 11:00:07;;;;;;;3.88;2.28;;;17.70;60.40;;;;;;4873521;29;20325;-84
2023/12/11 11:02:44;;;;;;;4.65;2.40;;;17.60;60.70;;;;;;4888518;29;20205;-85
2023/12/11 11:05:17;;;;;;;5.18;2.25;;;17.60;60.30;;;;;;4876867;29;20595;-85
2023/12/11 11:08:09;;;;;;;4.18;2.30;;;17.70;59.50;;;;;;4890438;29;20574;-85
2023/12/11 11:10:40;;;;;;;6.13;2.47;;;17.60;60.00;;;;;;4903466;29;20175;-85
2023/12/11 11:13:24;;;;;;;4.15;2.28;;;17.70;60.30;;;;;;4904977;29;20155;-85
2023/12/11 11:16:03;;;;;;;4.90;2.42;;;17.70;60.10;;;;;;4909058;29;20185;-86
2023/12/11 11:19:05;;;;;;;8.45;2.33;;;17.70;60.00;;;;;;4912568;29;20246;-87
2023/12/11 11:22:19;;;;;;;6.47;2.30;;;17.70;59.80;;;;;;4930992;29;20221;-85
2023/12/11 11:25:27;;;;;;;4.60;2.13;;;17.70;60.30;;;;;;4931648;29;20197;-84
2023/12/11 11:28:06;;;;;;;5.82;2.50;;;17.70;60.40;;;;;;4890990;29;20186;-85
2023/12/11 11:30:52;;;;;;;8.20;2.40;;;17.70;60.00;;;;;;4921794;29;20166;-85
2023/12/11 11:33:42;;;;;;;11.30;2.58;;;17.60;60.20;;;;;;4891232;29;20608;-85
2023/12/11 11:36:46;;;;;;;5.43;2.30;;;17.60;59.40;;;;;;4888245;29;20214;-85
2023/12/11 11:39:59;;;;;;;4.78;2.30;;;17.70;59.80;;;;;;4845256;29;20195;-86
2023/12/11 11:42:37;;;;;;;7.43;2.45;;;17.70;60.50;;;;;;4848780;29;20195;-85
2023/12/11 11:45:30;;;;;;;5.53;2.42;;;17.60;60.10;;;;;;4837020;29;20185;-85
2023/12/11 11:48:47;;;;;;;6.53;2.38;;;17.70;59.30;;;;;;4847124;29;20643;-85
2023/12/11 11:51:49;;;;;;;6.55;2.33;;;17.70;60.70;;;;;;4848307;29;20324;-85
2023/12/11 11:54:22;;;;;;;10.98;2.63;;;17.70;59.80;;;;;;4822034;29;20222;-85
2023/12/11 11:57:07;;;;;;;7.32;2.63;;;17.70;59.10;;;;;;4835326;29;20300;-85
2023/12/11 11:59:42;;;;;;;10.27;2.67;;;17.80;59.20;;;;;;4814412;29;20196;-85
2023/12/11 12:02:08;;;;;;;6.07;2.40;;;17.80;59.80;;;;;;4825442;29;20201;-82
2023/12/11 12:04:38;;;;;;;7.28;2.55;;;17.80;60.40;;;;;;4846308;29;20186;-85
2023/12/11 12:07:05;;;;;;;5.57;2.20;;;17.80;59.10;;;;;;4827920;29;20193;-85
2023/12/11 12:09:32;;;;;;;8.05;2.15;;;17.80;59.00;;;;;;4831347;29;20273;-86
2023/12/11 12:12:00;;;;;;;6.95;2.60;;;17.90;59.50;;;;;;4829967;29;20170;-87
2023/12/11 12:14:26;;;;;;;4.50;2.38;;;17.80;59.80;;;;;;4798083;29;20685;-85
2023/12/11 12:16:52;;;;;;;4.45;2.42;;;17.80;59.70;;;;;;4873020;29;20270;-85
2023/12/11 12:19:34;;;;;;;4.40;2.30;;;17.90;59.20;;;;;;4882835;29;20188;-86
2023/12/11 12:22:02;;;;;;;4.03;2.13;;;17.90;59.30;;;;;;4904236;29;20184;-86
2023/12/11 12:24:29;;;;;;;4.07;2.22;;;17.80;59.10;;;;;;4882018;29;20180;-85
2023/12/11 12:26:58;;;;;;;5.22;2.47;;;17.90;59.80;;;;;;4899467;29;20221;-85
2023/12/11 12:29:25;;;;;;;3.85;2.35;;;17.90;59.10;;;;;;4883165;29;20176;-86
2023/12/11 12:31:51;;;;;;;4.13;2.17;;;17.90;59.00;;;;;;4917545;29;20175;-85
2023/12/11 12:34:23;;;;;;;4.25;2.30;;;17.90;59.00;;;;;;4919559;29;20692;-86
2023/12/11 12:36:51;;;;;;;4.90;2.00;;;17.90;58.90;;;;;;4920133;29;20215;-86
2023/12/11 12:41:43;;;;;;;5.35;2.33;;;17.90;59.10;;;;;;5002140;23;20245;-85
2023/12/11 12:44:10;;;;;;;3.78;2.53;;;17.90;59.10;;;;;;4939069;29;20533;-85
2023/12/11 12:46:50;;;;;;;4.03;2.28;;;18.00;59.10;;;;;;4938555;29;20170;-86
2023/12/11 12:49:18;;;;;;;3.88;2.30;;;17.90;58.60;;;;;;4947259;29;20166;-85
2023/12/11 12:51:49;;;;;;;3.42;2.10;;;17.90;58.90;;;;;;4941770;29;20205;-86
2023/12/11 12:54:19;;;;;;;3.08;1.98;;;17.90;58.30;;;;;;4960031;29;20158;-86
2023/12/11 12:56:58;;;;;;;5.05;2.22;;;17.90;58.70;;;;;;4941841;29;20202;-86
2023/12/11 12:59:27;;;;;;;3.63;2.25;;;17.80;59.00;;;;;;4941970;29;20185;-85
2023/12/11 13:01:53;;;;;;;3.10;2.00;;;18.00;59.10;;;;;;4949593;29;20176;-86
2023/12/11 13:04:23;;;;;;;2.90;2.10;;;18.00;58.50;;;;;;4946952;29;20639;-86
2023/12/11 13:06:50;;;;;;;3.72;1.90;;;18.00;59.10;;;;;;4939219;29;20236;-86
2023/12/11 13:09:30;;;;;;;5.97;2.35;;;18.00;58.70;;;;;;4944470;29;20260;-85
2023/12/11 13:12:05;;;;;;;3.55;1.98;;;18.00;58.40;;;;;;4961265;29;20186;-85
2023/12/11 13:14:31;;;;;;;4.20;2.25;;;17.90;58.20;;;;;;4942105;29;20185;-85
2023/12/11 14:42:43;;;;;;;3.25;1.80;;;18.20;58.20;;;;;;5239342;23;20607;-85
2023/12/11 14:45:11;;;;;;;2.70;1.85;;;18.10;59.10;;;;;;4946691;29;20195;-85
2023/12/11 14:47:38;;;;;;;2.85;1.70;;;18.00;57.90;;;;;;4934578;29;20203;-85
2023/12/11 14:50:07;;;;;;;4.55;2.13;;;18.00;58.70;;;;;;4917481;29;20173;-86
2023/12/11 14:52:34;;;;;;;2.75;1.90;;;18.10;58.50;;;;;;4920020;29;20624;-87
2023/12/11 14:55:07;;;;;;;2.80;1.75;;;18.10;58.20;;;;;;4892558;29;20227;-86
2023/12/11 14:57:33;;;;;;;2.88;1.90;;;18.00;58.50;;;;;;4875726;29;20267;-86
2023/12/11 15:00:17;;;;;;;3.53;2.00;;;18.10;58.40;;;;;;4861751;29;20190;-85
2023/12/11 15:02:43;;;;;;;3.42;1.90;;;18.20;57.30;;;;;;4876374;29;20187;-86
2023/12/11 15:05:09;;;;;;;3.13;1.90;;;18.10;58.00;;;;;;4875992;29;20192;-86
2023/12/11 15:07:37;;;;;;;3.63;1.58;;;18.10;57.50;;;;;;4876262;29;20183;-86